Historyczne dane pomiarowe

Dodano dane terminowe – wersja testowa.

Dane z okresu 1951-2019

Wersja bazy: 1.34 [2019-03-16, lista zmian], aktualizacja planowana na 2019-04-15

Dane meteo z obszaru Polski uzyskane na podstawie danych udostępnionych przez Instytut Meteorologii i Gospodarki Wodnej – Państwowy Instytut Badawczy.

 

Wybierz Datę:    

       

TemperaturaWilgotnośćWiatrCiśnienieOpadyŚniegCzas trwania zjawisk
 Stacja t tx tn tng RH VA  wxwx mslp ppp RRR   cm mm wxwxwxwxwxwxwx
1988-03-18-12.8 -8.0-14.6- 87.0 2.0 7.0 10.4 18.0 0.0- 784.0 6.0 0.8 5.2183- 6.8- 15.8- 14.9---
1988-03-19-14.6-11.9-16.7- 84.8 1.7 7.0 6.5 0.0 0.0- 791.9 2.1 2.1 0.0185- 0.4- 14.8- 18.5---
1988-03-20-10.9 -7.7-16.5- 68.3 1.9 5.1 7.1 9.7 0.0- 792.4 8.0 1.3 6.7185 2.2 4.2- 8.7- 6.8---
1988-03-21 -5.2 -3.7-10.4- 91.8 3.8 8.0 11.9 21.2 0.0- 787.6 11.8 8.6 3.2188- 0.0- 14.8- 21.3---
1988-03-22 -3.8 -2.1 -5.6- 93.5 4.3 7.6 7.1 11.2 0.0- 790.0 1.3 1.2 0.1188- 0.0- 9.0- 18.7---
1988-03-23 -4.9 -3.0 -6.0- 95.1 4.1 8.0 3.8 0.0 0.0- 791.2 3.1 3.1 0.0187- 0.0- 9.8- 24.0---
1988-03-24 -5.3 -2.0 -7.1- 92.6 3.8 6.6 4.4 0.0 0.0- 791.7 1.7 1.4 0.3185- 0.2- 7.9- 13.8---
1988-03-25 -5.5 -3.7 -7.1- 92.0 3.7 6.8 11.8 17.7 3.2- 787.2 6.6 1.9 4.7185 4.4 2.6- 11.2- 14.7---
1988-03-26 -5.9 -4.5 -6.9- 91.8 3.6 7.6 9.5 8.3 0.0- 784.8 8.4 8.1 0.3187- 0.1- 12.5- 16.8---
1988-03-27 -6.5 -3.6 -8.0- 92.5 3.5 7.0 3.1 0.0 0.0- 787.7 1.1 0.5 0.6189- 0.4- 9.7- 18.8---
1988-03-28 -7.3 -5.0 -9.5- 92.3 3.3 7.3 5.3 6.5 0.0- 790.4 19.9 4.9 15.0188- 0.0- 9.3- 23.3---
1988-03-29 -5.7 -2.4 -7.4- 94.1 3.8 6.3 5.4 8.5 0.0- 793.7 5.3 5.3 0.0190- 0.0- 6.8- 17.5- 6.0-
1988-03-30 -4.4 -2.2 -6.8- 91.5 4.0 3.3 8.3 13.7 6.7- 792.7 0.0 0.0 0.0192- 10.6----- 5.0-
1988-03-31 -2.8 -1.7 -4.7- 84.8 4.3 7.8 16.6 24.0 18.7- 791.6 8.5 0.7 7.8190 5.6 0.7- 8.5- 8.3---
1988-04-01 -3.2 -1.5 -4.9- 93.9 4.5 6.5 9.1 8.9 0.0- 789.3 9.6 9.6 0.0194- 0.3- 9.3- 17.8---
1988-04-02 -5.7 -3.6 -7.2- 93.0 3.7 7.9 1.3 0.0 0.0- 793.3 1.0 1.0 0.0195- 0.0- 9.3- 19.8---
1988-04-03 -5.2 -2.5 -7.8- 82.8 3.5 6.0 3.6 0.0 0.0- 799.9 0.5 0.0 0.5195- 7.2--- 0.2---
1988-04-04 -3.4 -1.8 -4.9- 93.5 4.5 6.8 5.6 0.8 0.0- 800.9 1.0 1.0 0.0194- 0.7- 8.7- 12.5- 4.7-
1988-04-05 -2.1 1.5 -4.7- 80.4 4.2 6.0 4.8 0.0 0.0- 800.3 0.0 0.0 0.0194 5.4 4.8-------
1988-04-06 -1.2 1.1 -3.6- 60.0 3.4 1.9 3.4 0.0 0.0- 801.3 0.0 0.0 0.0193- 11.5-------
1988-04-07 0.6 3.6 -3.4- 75.5 4.9 5.6 7.4 5.8 0.0- 799.5 0.0 0.0 0.0182- 8.6--- 0.3---
1988-04-08 -0.5 2.3 -1.4- 98.0 5.8 7.9 7.3 3.8 0.0- 791.0 8.9 2.4 6.5174 4.5 0.0- 9.8- 24.0---
1988-04-09 -2.8 -0.1 -4.7- 95.5 4.8 7.9 9.1 10.6 0.0- 790.4 4.0 2.0 2.0173- 0.1 0.8 14.2- 18.9---
1988-04-10 -8.9 -4.5-11.9- 89.1 2.8 5.8 7.5 4.7 0.0- 792.9 7.1 7.1 0.0173 4.4 2.5- 12.3- 14.3---
1988-04-11 -5.5 -2.4-12.0- 75.0 3.1 3.9 9.6 15.8 0.0- 797.8 0.0 0.0 0.0178- 9.1-------
1988-04-12 -1.4 1.5 -3.7- 66.5 3.7 1.9 9.1 12.4 0.0- 797.8 0.8 0.0 0.8171- 12.2-------
1988-04-13 -1.9 -0.3 -3.5- 95.3 5.1 8.0 11.4 13.9 7.5- 791.8 43.3 7.3 36.0166- 0.0- 21.2- 19.5---
1988-04-14-11.9 -2.1-12.9- 93.3 2.3 8.0 11.3 24.0 0.0- 793.6 44.5 30.9 13.6195- 0.0- 24.0- 24.0---
1988-04-15-12.0 -7.9-14.7- 90.5 2.2 2.9 8.8 7.7 0.0- 796.6 0.0 0.0 0.0223 5.2 9.6- 1.3- 1.3---
1988-04-16 -3.6 -0.9-11.9- 50.8 2.5 0.8 7.1 6.5 0.0- 797.2 0.0 0.0 0.0193- 13.4-------
652.6 ms

 

Źródłem pochodzenia danych jest Instytut Meteorologii i Gospodarki Wodnej – Państwowy Instytut Badawczy. Dane Instytutu Meteorologii i Gospodarki Wodnej – Państwowego Instytutu Badawczego zostały przetworzone.

Dane źródłowe można odnaleźć na stronie https://dane.imgw.pl